sensor_id;sensor_type;location;lat;lon;timestamp;P1;durP1;ratioP1;P2;durP2;ratioP2
4317;SDS011;2172;53.576;9.934;2023-02-01T00:01:48;21.07;;;5.40;;
4317;SDS011;2172;53.576;9.934;2023-02-01T00:04:15;17.50;;;4.40;;
4317;SDS011;2172;53.576;9.934;2023-02-01T00:06:43;13.47;;;3.90;;
4317;SDS011;2172;53.576;9.934;2023-02-01T00:09:10;22.43;;;5.10;;
4317;SDS011;2172;53.576;9.934;2023-02-01T00:11:38;20.37;;;4.50;;
4317;SDS011;2172;53.576;9.934;2023-02-01T00:14:06;20.50;;;5.27;;
4317;SDS011;2172;53.576;9.934;2023-02-01T00:16:34;27.03;;;5.60;;
4317;SDS011;2172;53.576;9.934;2023-02-01T00:19:05;24.47;;;5.70;;
4317;SDS011;2172;53.576;9.934;2023-02-01T00:21:34;15.63;;;5.17;;
4317;SDS011;2172;53.576;9.934;2023-02-01T00:24:01;25.83;;;6.27;;
4317;SDS011;2172;53.576;9.934;2023-02-01T00:26:30;25.07;;;5.80;;
4317;SDS011;2172;53.576;9.934;2023-02-01T00:28:59;24.87;;;5.90;;
4317;SDS011;2172;53.576;9.934;2023-02-01T00:31:27;24.47;;;5.00;;
4317;SDS011;2172;53.576;9.934;2023-02-01T00:33:54;13.77;;;5.23;;
4317;SDS011;2172;53.576;9.934;2023-02-01T00:36:24;15.27;;;4.70;;
4317;SDS011;2172;53.576;9.934;2023-02-01T00:38:51;27.80;;;5.90;;
4317;SDS011;2172;53.576;9.934;2023-02-01T00:41:19;25.83;;;5.40;;
4317;SDS011;2172;53.576;9.934;2023-02-01T00:43:48;23.40;;;5.47;;
4317;SDS011;2172;53.576;9.934;2023-02-01T00:46:17;23.57;;;5.70;;
4317;SDS011;2172;53.576;9.934;2023-02-01T00:48:45;15.00;;;5.47;;
4317;SDS011;2172;53.576;9.934;2023-02-01T00:51:13;23.33;;;6.23;;
4317;SDS011;2172;53.576;9.934;2023-02-01T00:53:43;24.80;;;7.00;;
4317;SDS011;2172;53.576;9.934;2023-02-01T00:56:11;27.70;;;6.27;;
4317;SDS011;2172;53.576;9.934;2023-02-01T00:58:39;22.10;;;5.83;;
4317;SDS011;2172;53.576;9.934;2023-02-01T01:01:07;25.27;;;6.23;;
4317;SDS011;2172;53.576;9.934;2023-02-01T01:03:36;22.47;;;6.90;;
4317;SDS011;2172;53.576;9.934;2023-02-01T01:06:07;26.50;;;5.90;;
4317;SDS011;2172;53.576;9.934;2023-02-01T01:08:36;25.03;;;6.70;;
4317;SDS011;2172;53.576;9.934;2023-02-01T01:11:06;20.43;;;6.83;;
4317;SDS011;2172;53.576;9.934;2023-02-01T01:13:35;23.10;;;6.43;;
4317;SDS011;2172;53.576;9.934;2023-02-01T01:16:03;21.57;;;6.37;;
4317;SDS011;2172;53.576;9.934;2023-02-01T01:18:32;30.70;;;7.10;;
4317;SDS011;2172;53.576;9.934;2023-02-01T01:21:00;23.00;;;6.67;;
4317;SDS011;2172;53.576;9.934;2023-02-01T01:23:29;29.70;;;7.30;;
4317;SDS011;2172;53.576;9.934;2023-02-01T01:25:57;32.13;;;7.90;;
4317;SDS011;2172;53.576;9.934;2023-02-01T01:28:26;30.53;;;6.90;;
4317;SDS011;2172;53.576;9.934;2023-02-01T01:30:53;22.63;;;6.93;;
4317;SDS011;2172;53.576;9.934;2023-02-01T01:33:21;27.97;;;5.43;;
4317;SDS011;2172;53.576;9.934;2023-02-01T01:35:49;31.17;;;6.70;;
4317;SDS011;2172;53.576;9.934;2023-02-01T01:38:16;24.43;;;6.07;;
4317;SDS011;2172;53.576;9.934;2023-02-01T01:40:44;28.90;;;7.10;;
4317;SDS011;2172;53.576;9.934;2023-02-01T01:43:13;22.40;;;6.67;;
4317;SDS011;2172;53.576;9.934;2023-02-01T01:45:44;26.03;;;6.13;;
4317;SDS011;2172;53.576;9.934;2023-02-01T01:48:13;28.27;;;7.17;;
4317;SDS011;2172;53.576;9.934;2023-02-01T01:50:44;22.47;;;5.77;;
4317;SDS011;2172;53.576;9.934;2023-02-01T01:53:15;19.57;;;5.33;;
4317;SDS011;2172;53.576;9.934;2023-02-01T01:55:45;21.87;;;6.87;;
4317;SDS011;2172;53.576;9.934;2023-02-01T01:58:14;35.10;;;7.30;;
4317;SDS011;2172;53.576;9.934;2023-02-01T02:00:46;29.50;;;8.20;;
4317;SDS011;2172;53.576;9.934;2023-02-01T02:03:15;40.77;;;8.20;;
4317;SDS011;2172;53.576;9.934;2023-02-01T02:05:46;33.37;;;7.93;;
4317;SDS011;2172;53.576;9.934;2023-02-01T02:08:15;32.90;;;7.40;;
4317;SDS011;2172;53.576;9.934;2023-02-01T02:10:45;26.50;;;6.23;;
4317;SDS011;2172;53.576;9.934;2023-02-01T02:13:29;20.60;;;6.53;;
4317;SDS011;2172;53.576;9.934;2023-02-01T02:16:04;22.10;;;6.40;;
4317;SDS011;2172;53.576;9.934;2023-02-01T02:18:51;25.33;;;6.47;;
4317;SDS011;2172;53.576;9.934;2023-02-01T02:21:27;25.07;;;7.03;;
4317;SDS011;2172;53.576;9.934;2023-02-01T02:24:21;28.73;;;5.70;;
4317;SDS011;2172;53.576;9.934;2023-02-01T02:36:17;22.73;;;6.10;;
4317;SDS011;2172;53.576;9.934;2023-02-01T02:38:51;23.83;;;7.13;;
4317;SDS011;2172;53.576;9.934;2023-02-01T02:41:24;41.60;;;10.07;;
4317;SDS011;2172;53.576;9.934;2023-02-01T02:44:15;22.87;;;5.50;;
4317;SDS011;2172;53.576;9.934;2023-02-01T02:47:07;28.93;;;6.53;;
4317;SDS011;2172;53.576;9.934;2023-02-01T02:49:58;22.70;;;5.47;;
4317;SDS011;2172;53.576;9.934;2023-02-01T02:52:52;22.50;;;5.47;;
4317;SDS011;2172;53.576;9.934;2023-02-01T02:55:40;25.17;;;6.70;;
4317;SDS011;2172;53.576;9.934;2023-02-01T02:58:08;27.90;;;6.97;;
4317;SDS011;2172;53.576;9.934;2023-02-01T03:00:55;22.53;;;5.63;;
4317;SDS011;2172;53.576;9.934;2023-02-01T03:03:41;21.27;;;7.67;;
4317;SDS011;2172;53.576;9.934;2023-02-01T03:06:34;22.90;;;6.90;;
4317;SDS011;2172;53.576;9.934;2023-02-01T03:09:06;28.90;;;8.17;;
4317;SDS011;2172;53.576;9.934;2023-02-01T03:11:38;26.53;;;6.83;;
4317;SDS011;2172;53.576;9.934;2023-02-01T03:14:24;24.53;;;6.07;;
4317;SDS011;2172;53.576;9.934;2023-02-01T03:16:54;20.03;;;5.37;;
4317;SDS011;2172;53.576;9.934;2023-02-01T03:19:27;24.73;;;7.07;;
4317;SDS011;2172;53.576;9.934;2023-02-01T03:21:59;27.93;;;8.03;;
4317;SDS011;2172;53.576;9.934;2023-02-01T03:24:29;17.20;;;4.53;;
4317;SDS011;2172;53.576;9.934;2023-02-01T03:27:02;18.60;;;6.20;;
4317;SDS011;2172;53.576;9.934;2023-02-01T03:29:38;11.50;;;3.43;;
4317;SDS011;2172;53.576;9.934;2023-02-01T03:32:10;19.37;;;4.23;;
4317;SDS011;2172;53.576;9.934;2023-02-01T03:34:37;12.63;;;3.30;;
4317;SDS011;2172;53.576;9.934;2023-02-01T03:37:06;8.73;;;3.77;;
4317;SDS011;2172;53.576;9.934;2023-02-01T03:39:38;12.00;;;3.33;;
4317;SDS011;2172;53.576;9.934;2023-02-01T03:42:09;16.87;;;4.33;;
4317;SDS011;2172;53.576;9.934;2023-02-01T03:44:41;16.37;;;5.30;;
4317;SDS011;2172;53.576;9.934;2023-02-01T03:47:13;10.33;;;3.83;;
4317;SDS011;2172;53.576;9.934;2023-02-01T03:49:46;13.10;;;3.87;;
4317;SDS011;2172;53.576;9.934;2023-02-01T03:52:16;18.57;;;4.03;;
4317;SDS011;2172;53.576;9.934;2023-02-01T03:54:48;19.47;;;4.57;;
4317;SDS011;2172;53.576;9.934;2023-02-01T03:57:18;13.77;;;3.90;;
4317;SDS011;2172;53.576;9.934;2023-02-01T03:59:49;17.30;;;3.90;;
4317;SDS011;2172;53.576;9.934;2023-02-01T04:02:16;22.53;;;5.00;;
4317;SDS011;2172;53.576;9.934;2023-02-01T04:04:44;14.00;;;4.00;;
4317;SDS011;2172;53.576;9.934;2023-02-01T04:07:14;17.83;;;4.57;;
4317;SDS011;2172;53.576;9.934;2023-02-01T04:09:42;19.57;;;4.60;;
4317;SDS011;2172;53.576;9.934;2023-02-01T04:12:10;19.80;;;6.37;;
4317;SDS011;2172;53.576;9.934;2023-02-01T04:14:38;18.90;;;4.20;;
4317;SDS011;2172;53.576;9.934;2023-02-01T04:17:06;16.30;;;4.67;;
4317;SDS011;2172;53.576;9.934;2023-02-01T04:19:33;19.90;;;4.10;;
4317;SDS011;2172;53.576;9.934;2023-02-01T04:22:01;15.37;;;4.40;;
4317;SDS011;2172;53.576;9.934;2023-02-01T04:24:28;14.17;;;3.90;;
4317;SDS011;2172;53.576;9.934;2023-02-01T04:26:56;22.57;;;4.60;;
4317;SDS011;2172;53.576;9.934;2023-02-01T04:29:25;15.07;;;4.60;;
4317;SDS011;2172;53.576;9.934;2023-02-01T04:31:53;19.10;;;4.10;;
4317;SDS011;2172;53.576;9.934;2023-02-01T04:34:20;16.70;;;4.83;;
4317;SDS011;2172;53.576;9.934;2023-02-01T04:36:49;14.07;;;3.70;;
4317;SDS011;2172;53.576;9.934;2023-02-01T04:39:17;18.10;;;3.97;;
4317;SDS011;2172;53.576;9.934;2023-02-01T04:41:44;9.63;;;4.60;;
4317;SDS011;2172;53.576;9.934;2023-02-01T04:44:12;8.80;;;3.73;;
4317;SDS011;2172;53.576;9.934;2023-02-01T04:46:42;11.13;;;3.30;;
4317;SDS011;2172;53.576;9.934;2023-02-01T04:49:10;8.40;;;2.70;;
4317;SDS011;2172;53.576;9.934;2023-02-01T04:51:39;22.37;;;5.70;;
4317;SDS011;2172;53.576;9.934;2023-02-01T04:54:07;12.23;;;3.70;;
4317;SDS011;2172;53.576;9.934;2023-02-01T04:56:36;10.50;;;3.00;;
4317;SDS011;2172;53.576;9.934;2023-02-01T04:59:04;14.13;;;2.33;;
4317;SDS011;2172;53.576;9.934;2023-02-01T05:01:32;5.73;;;1.97;;
4317;SDS011;2172;53.576;9.934;2023-02-01T05:04:01;8.77;;;2.13;;
4317;SDS011;2172;53.576;9.934;2023-02-01T05:06:28;12.40;;;3.53;;
4317;SDS011;2172;53.576;9.934;2023-02-01T05:08:56;6.67;;;1.77;;
4317;SDS011;2172;53.576;9.934;2023-02-01T05:11:23;3.53;;;1.70;;
4317;SDS011;2172;53.576;9.934;2023-02-01T05:14:08;5.47;;;1.20;;
4317;SDS011;2172;53.576;9.934;2023-02-01T05:16:36;2.87;;;0.97;;
4317;SDS011;2172;53.576;9.934;2023-02-01T05:19:05;2.37;;;1.20;;
4317;SDS011;2172;53.576;9.934;2023-02-01T05:21:32;2.80;;;1.00;;
4317;SDS011;2172;53.576;9.934;2023-02-01T05:24:00;5.57;;;1.67;;
4317;SDS011;2172;53.576;9.934;2023-02-01T05:26:39;3.00;;;1.33;;
4317;SDS011;2172;53.576;9.934;2023-02-01T05:29:07;2.60;;;1.10;;
4317;SDS011;2172;53.576;9.934;2023-02-01T05:31:35;2.23;;;1.10;;
4317;SDS011;2172;53.576;9.934;2023-02-01T05:34:05;3.53;;;1.20;;
4317;SDS011;2172;53.576;9.934;2023-02-01T05:36:32;3.20;;;1.20;;
4317;SDS011;2172;53.576;9.934;2023-02-01T05:39:00;6.83;;;1.40;;
4317;SDS011;2172;53.576;9.934;2023-02-01T05:41:28;4.13;;;1.43;;
4317;SDS011;2172;53.576;9.934;2023-02-01T05:43:55;7.40;;;1.13;;
4317;SDS011;2172;53.576;9.934;2023-02-01T05:46:23;2.13;;;1.03;;
4317;SDS011;2172;53.576;9.934;2023-02-01T05:48:50;2.80;;;1.33;;
4317;SDS011;2172;53.576;9.934;2023-02-01T05:51:19;3.00;;;1.13;;
4317;SDS011;2172;53.576;9.934;2023-02-01T05:53:47;1.30;;;1.00;;
4317;SDS011;2172;53.576;9.934;2023-02-01T05:56:14;3.17;;;1.10;;
4317;SDS011;2172;53.576;9.934;2023-02-01T05:58:42;3.67;;;1.10;;
4317;SDS011;2172;53.576;9.934;2023-02-01T06:01:09;5.23;;;1.13;;
4317;SDS011;2172;53.576;9.934;2023-02-01T06:03:37;2.13;;;1.10;;
4317;SDS011;2172;53.576;9.934;2023-02-01T06:06:04;2.67;;;1.53;;
4317;SDS011;2172;53.576;9.934;2023-02-01T06:08:33;2.93;;;1.23;;
4317;SDS011;2172;53.576;9.934;2023-02-01T06:11:01;4.77;;;1.20;;
4317;SDS011;2172;53.576;9.934;2023-02-01T06:13:30;5.47;;;1.57;;
4317;SDS011;2172;53.576;9.934;2023-02-01T06:15:58;4.90;;;1.83;;
4317;SDS011;2172;53.576;9.934;2023-02-01T06:18:26;3.10;;;1.97;;
4317;SDS011;2172;53.576;9.934;2023-02-01T06:20:55;7.43;;;2.60;;
4317;SDS011;2172;53.576;9.934;2023-02-01T06:23:25;3.10;;;1.20;;
4317;SDS011;2172;53.576;9.934;2023-02-01T06:25:57;5.50;;;2.30;;
4317;SDS011;2172;53.576;9.934;2023-02-01T06:28:25;7.00;;;2.23;;
4317;SDS011;2172;53.576;9.934;2023-02-01T06:30:53;13.70;;;3.60;;
4317;SDS011;2172;53.576;9.934;2023-02-01T06:33:21;3.73;;;2.23;;
4317;SDS011;2172;53.576;9.934;2023-02-01T06:35:48;10.40;;;3.17;;
4317;SDS011;2172;53.576;9.934;2023-02-01T06:38:23;6.23;;;2.70;;
4317;SDS011;2172;53.576;9.934;2023-02-01T06:40:52;13.13;;;3.90;;
4317;SDS011;2172;53.576;9.934;2023-02-01T06:43:21;8.17;;;3.10;;
4317;SDS011;2172;53.576;9.934;2023-02-01T06:45:49;10.73;;;2.83;;
4317;SDS011;2172;53.576;9.934;2023-02-01T06:48:17;9.03;;;3.50;;
4317;SDS011;2172;53.576;9.934;2023-02-01T06:50:45;22.30;;;3.20;;
4317;SDS011;2172;53.576;9.934;2023-02-01T06:53:12;12.37;;;4.63;;
4317;SDS011;2172;53.576;9.934;2023-02-01T06:55:40;11.43;;;3.97;;
4317;SDS011;2172;53.576;9.934;2023-02-01T06:58:09;12.50;;;3.83;;
4317;SDS011;2172;53.576;9.934;2023-02-01T07:00:36;15.60;;;3.33;;
4317;SDS011;2172;53.576;9.934;2023-02-01T07:03:04;15.07;;;3.83;;
4317;SDS011;2172;53.576;9.934;2023-02-01T07:05:31;13.23;;;3.23;;
4317;SDS011;2172;53.576;9.934;2023-02-01T07:07:59;15.70;;;4.00;;
4317;SDS011;2172;53.576;9.934;2023-02-01T07:10:27;13.47;;;3.53;;
4317;SDS011;2172;53.576;9.934;2023-02-01T07:12:55;12.50;;;5.23;;
4317;SDS011;2172;53.576;9.934;2023-02-01T07:15:24;14.63;;;4.87;;
4317;SDS011;2172;53.576;9.934;2023-02-01T07:17:53;17.53;;;5.00;;
4317;SDS011;2172;53.576;9.934;2023-02-01T07:20:21;17.33;;;4.70;;
4317;SDS011;2172;53.576;9.934;2023-02-01T07:22:54;16.80;;;5.60;;
4317;SDS011;2172;53.576;9.934;2023-02-01T07:25:22;22.77;;;4.70;;
4317;SDS011;2172;53.576;9.934;2023-02-01T07:27:50;13.60;;;4.40;;
4317;SDS011;2172;53.576;9.934;2023-02-01T07:30:17;19.27;;;3.00;;
4317;SDS011;2172;53.576;9.934;2023-02-01T07:32:46;24.90;;;5.73;;
4317;SDS011;2172;53.576;9.934;2023-02-01T07:35:14;22.93;;;6.77;;
4317;SDS011;2172;53.576;9.934;2023-02-01T07:37:41;22.87;;;5.93;;
4317;SDS011;2172;53.576;9.934;2023-02-01T07:40:10;29.47;;;6.70;;
4317;SDS011;2172;53.576;9.934;2023-02-01T07:42:38;25.47;;;7.07;;
4317;SDS011;2172;53.576;9.934;2023-02-01T07:45:06;29.73;;;6.10;;
4317;SDS011;2172;53.576;9.934;2023-02-01T07:47:34;30.23;;;7.90;;
4317;SDS011;2172;53.576;9.934;2023-02-01T07:50:03;18.30;;;7.20;;
4317;SDS011;2172;53.576;9.934;2023-02-01T07:52:31;29.20;;;7.17;;
4317;SDS011;2172;53.576;9.934;2023-02-01T07:54:58;25.13;;;6.60;;
4317;SDS011;2172;53.576;9.934;2023-02-01T07:57:26;32.03;;;7.93;;
4317;SDS011;2172;53.576;9.934;2023-02-01T07:59:53;21.33;;;5.77;;
4317;SDS011;2172;53.576;9.934;2023-02-01T08:02:40;36.90;;;10.73;;
4317;SDS011;2172;53.576;9.934;2023-02-01T08:05:09;24.20;;;6.50;;
4317;SDS011;2172;53.576;9.934;2023-02-01T08:07:36;21.03;;;5.70;;
4317;SDS011;2172;53.576;9.934;2023-02-01T08:10:04;19.43;;;5.77;;
4317;SDS011;2172;53.576;9.934;2023-02-01T08:12:36;29.70;;;7.57;;
4317;SDS011;2172;53.576;9.934;2023-02-01T08:15:03;22.83;;;7.30;;
4317;SDS011;2172;53.576;9.934;2023-02-01T08:17:32;30.93;;;5.63;;
4317;SDS011;2172;53.576;9.934;2023-02-01T08:19:59;24.10;;;6.77;;
4317;SDS011;2172;53.576;9.934;2023-02-01T08:22:32;18.33;;;5.50;;
4317;SDS011;2172;53.576;9.934;2023-02-01T08:24:59;31.73;;;7.10;;
4317;SDS011;2172;53.576;9.934;2023-02-01T08:27:27;31.47;;;6.63;;
4317;SDS011;2172;53.576;9.934;2023-02-01T08:29:55;22.90;;;5.60;;
4317;SDS011;2172;53.576;9.934;2023-02-01T08:32:22;23.10;;;6.33;;
4317;SDS011;2172;53.576;9.934;2023-02-01T08:34:50;23.73;;;5.27;;
4317;SDS011;2172;53.576;9.934;2023-02-01T08:37:17;23.87;;;6.20;;
4317;SDS011;2172;53.576;9.934;2023-02-01T08:39:46;18.80;;;4.63;;
4317;SDS011;2172;53.576;9.934;2023-02-01T08:42:16;18.57;;;4.10;;
4317;SDS011;2172;53.576;9.934;2023-02-01T08:45:01;18.80;;;4.77;;
4317;SDS011;2172;53.576;9.934;2023-02-01T08:47:30;22.20;;;5.67;;
4317;SDS011;2172;53.576;9.934;2023-02-01T08:49:58;21.30;;;4.37;;
4317;SDS011;2172;53.576;9.934;2023-02-01T08:52:25;16.93;;;3.90;;
4317;SDS011;2172;53.576;9.934;2023-02-01T08:54:54;18.90;;;5.87;;
4317;SDS011;2172;53.576;9.934;2023-02-01T08:57:22;20.10;;;5.97;;
4317;SDS011;2172;53.576;9.934;2023-02-01T08:59:49;19.60;;;5.67;;
4317;SDS011;2172;53.576;9.934;2023-02-01T09:02:17;22.73;;;5.23;;
4317;SDS011;2172;53.576;9.934;2023-02-01T09:04:44;20.63;;;6.73;;
4317;SDS011;2172;53.576;9.934;2023-02-01T09:07:12;20.27;;;6.27;;
4317;SDS011;2172;53.576;9.934;2023-02-01T09:09:40;27.00;;;5.60;;
4317;SDS011;2172;53.576;9.934;2023-02-01T09:12:09;26.83;;;6.00;;
4317;SDS011;2172;53.576;9.934;2023-02-01T09:14:36;19.97;;;6.03;;
4317;SDS011;2172;53.576;9.934;2023-02-01T09:17:04;22.50;;;5.60;;
4317;SDS011;2172;53.576;9.934;2023-02-01T09:19:32;21.70;;;6.13;;
4317;SDS011;2172;53.576;9.934;2023-02-01T09:21:59;21.90;;;5.47;;
4317;SDS011;2172;53.576;9.934;2023-02-01T09:24:27;21.67;;;6.13;;
4317;SDS011;2172;53.576;9.934;2023-02-01T09:26:54;27.97;;;5.53;;
4317;SDS011;2172;53.576;9.934;2023-02-01T09:29:23;17.97;;;5.20;;
4317;SDS011;2172;53.576;9.934;2023-02-01T09:31:51;23.70;;;5.17;;
4317;SDS011;2172;53.576;9.934;2023-02-01T09:34:19;16.37;;;5.13;;
4317;SDS011;2172;53.576;9.934;2023-02-01T09:36:46;23.87;;;6.23;;
4317;SDS011;2172;53.576;9.934;2023-02-01T09:39:14;28.43;;;5.07;;
4317;SDS011;2172;53.576;9.934;2023-02-01T09:41:44;23.23;;;6.53;;
4317;SDS011;2172;53.576;9.934;2023-02-01T09:44:19;21.07;;;6.50;;
4317;SDS011;2172;53.576;9.934;2023-02-01T09:46:58;19.67;;;6.13;;
4317;SDS011;2172;53.576;9.934;2023-02-01T09:49:27;17.53;;;5.63;;
4317;SDS011;2172;53.576;9.934;2023-02-01T09:51:56;21.00;;;4.80;;
4317;SDS011;2172;53.576;9.934;2023-02-01T09:54:25;16.73;;;5.53;;
4317;SDS011;2172;53.576;9.934;2023-02-01T09:56:53;32.53;;;6.37;;
4317;SDS011;2172;53.576;9.934;2023-02-01T09:59:32;21.50;;;5.93;;
4317;SDS011;2172;53.576;9.934;2023-02-01T10:02:01;33.43;;;7.00;;
4317;SDS011;2172;53.576;9.934;2023-02-01T10:04:30;17.43;;;4.20;;
4317;SDS011;2172;53.576;9.934;2023-02-01T10:07:02;20.50;;;4.60;;
4317;SDS011;2172;53.576;9.934;2023-02-01T10:09:41;13.50;;;4.03;;
4317;SDS011;2172;53.576;9.934;2023-02-01T10:15:30;20.87;;;4.20;;
4317;SDS011;2172;53.576;9.934;2023-02-01T10:18:14;24.70;;;5.30;;
4317;SDS011;2172;53.576;9.934;2023-02-01T10:20:56;19.13;;;4.80;;
4317;SDS011;2172;53.576;9.934;2023-02-01T10:23:32;16.47;;;5.33;;
4317;SDS011;2172;53.576;9.934;2023-02-01T10:26:08;16.57;;;4.63;;
4317;SDS011;2172;53.576;9.934;2023-02-01T10:28:44;22.47;;;6.30;;
4317;SDS011;2172;53.576;9.934;2023-02-01T10:31:13;15.93;;;5.90;;
4317;SDS011;2172;53.576;9.934;2023-02-01T10:33:43;18.50;;;4.97;;
4317;SDS011;2172;53.576;9.934;2023-02-01T10:36:13;20.37;;;5.17;;
4317;SDS011;2172;53.576;9.934;2023-02-01T10:38:45;21.43;;;5.77;;
4317;SDS011;2172;53.576;9.934;2023-02-01T10:41:13;20.20;;;5.40;;
4317;SDS011;2172;53.576;9.934;2023-02-01T10:43:43;24.23;;;5.80;;
4317;SDS011;2172;53.576;9.934;2023-02-01T10:46:13;18.77;;;6.30;;
4317;SDS011;2172;53.576;9.934;2023-02-01T10:48:41;25.43;;;6.50;;
4317;SDS011;2172;53.576;9.934;2023-02-01T10:51:10;18.17;;;5.00;;
4317;SDS011;2172;53.576;9.934;2023-02-01T10:53:42;21.50;;;5.60;;
4317;SDS011;2172;53.576;9.934;2023-02-01T10:56:12;21.73;;;5.70;;
4317;SDS011;2172;53.576;9.934;2023-02-01T10:58:43;14.83;;;4.80;;
4317;SDS011;2172;53.576;9.934;2023-02-01T11:01:17;16.37;;;5.43;;
4317;SDS011;2172;53.576;9.934;2023-02-01T11:03:51;19.60;;;4.70;;
4317;SDS011;2172;53.576;9.934;2023-02-01T11:06:24;19.17;;;4.87;;
4317;SDS011;2172;53.576;9.934;2023-02-01T11:08:54;29.50;;;5.63;;
4317;SDS011;2172;53.576;9.934;2023-02-01T11:11:23;23.73;;;4.50;;
4317;SDS011;2172;53.576;9.934;2023-02-01T11:13:52;31.87;;;5.87;;
4317;SDS011;2172;53.576;9.934;2023-02-01T11:16:28;22.57;;;6.20;;
4317;SDS011;2172;53.576;9.934;2023-02-01T11:18:57;15.57;;;5.07;;
4317;SDS011;2172;53.576;9.934;2023-02-01T11:21:25;19.83;;;4.20;;
4317;SDS011;2172;53.576;9.934;2023-02-01T11:23:53;19.13;;;5.40;;
4317;SDS011;2172;53.576;9.934;2023-02-01T11:26:22;16.93;;;5.07;;
4317;SDS011;2172;53.576;9.934;2023-02-01T11:28:52;14.30;;;5.23;;
4317;SDS011;2172;53.576;9.934;2023-02-01T11:31:24;17.13;;;4.67;;
4317;SDS011;2172;53.576;9.934;2023-02-01T11:33:53;18.70;;;5.33;;
4317;SDS011;2172;53.576;9.934;2023-02-01T11:36:24;16.93;;;4.17;;
4317;SDS011;2172;53.576;9.934;2023-02-01T11:39:06;16.70;;;4.40;;
4317;SDS011;2172;53.576;9.934;2023-02-01T11:41:40;19.07;;;5.40;;
4317;SDS011;2172;53.576;9.934;2023-02-01T11:44:20;20.93;;;4.30;;
4317;SDS011;2172;53.576;9.934;2023-02-01T11:46:53;14.23;;;5.53;;
4317;SDS011;2172;53.576;9.934;2023-02-01T11:49:21;23.90;;;5.40;;
4317;SDS011;2172;53.576;9.934;2023-02-01T11:51:54;14.13;;;3.00;;
4317;SDS011;2172;53.576;9.934;2023-02-01T11:54:36;20.47;;;3.90;;
4317;SDS011;2172;53.576;9.934;2023-02-01T11:57:16;10.13;;;2.50;;
4317;SDS011;2172;53.576;9.934;2023-02-01T12:00:02;12.93;;;3.60;;
4317;SDS011;2172;53.576;9.934;2023-02-01T12:02:49;7.90;;;2.70;;
4317;SDS011;2172;53.576;9.934;2023-02-01T12:05:32;12.03;;;3.23;;
4317;SDS011;2172;53.576;9.934;2023-02-01T12:08:11;11.80;;;3.90;;
4317;SDS011;2172;53.576;9.934;2023-02-01T12:10:50;9.13;;;3.50;;
4317;SDS011;2172;53.576;9.934;2023-02-01T12:13:30;17.10;;;3.87;;
4317;SDS011;2172;53.576;9.934;2023-02-01T12:16:08;15.13;;;3.93;;
4317;SDS011;2172;53.576;9.934;2023-02-01T12:18:48;14.83;;;4.40;;
4317;SDS011;2172;53.576;9.934;2023-02-01T12:21:42;19.97;;;4.53;;
4317;SDS011;2172;53.576;9.934;2023-02-01T12:27:14;11.47;;;2.90;;
4317;SDS011;2172;53.576;9.934;2023-02-01T12:29:57;5.47;;;2.27;;
4317;SDS011;2172;53.576;9.934;2023-02-01T12:32:44;10.53;;;3.23;;
4317;SDS011;2172;53.576;9.934;2023-02-01T12:35:25;8.33;;;2.30;;
4317;SDS011;2172;53.576;9.934;2023-02-01T12:38:08;7.27;;;2.17;;
4317;SDS011;2172;53.576;9.934;2023-02-01T12:40:49;5.37;;;1.53;;
4317;SDS011;2172;53.576;9.934;2023-02-01T12:43:27;3.27;;;1.57;;
4317;SDS011;2172;53.576;9.934;2023-02-01T12:46:04;6.70;;;1.50;;
4317;SDS011;2172;53.576;9.934;2023-02-01T12:48:34;4.20;;;1.80;;
4317;SDS011;2172;53.576;9.934;2023-02-01T12:51:10;2.77;;;1.60;;
4317;SDS011;2172;53.576;9.934;2023-02-01T12:53:43;4.00;;;1.90;;
4317;SDS011;2172;53.576;9.934;2023-02-01T12:56:14;5.60;;;2.37;;
4317;SDS011;2172;53.576;9.934;2023-02-01T12:58:46;2.60;;;1.67;;
4317;SDS011;2172;53.576;9.934;2023-02-01T13:01:18;8.10;;;2.73;;
4317;SDS011;2172;53.576;9.934;2023-02-01T13:03:52;5.67;;;1.80;;
4317;SDS011;2172;53.576;9.934;2023-02-01T13:06:25;9.97;;;3.77;;
4317;SDS011;2172;53.576;9.934;2023-02-01T13:08:57;5.80;;;1.87;;
4317;SDS011;2172;53.576;9.934;2023-02-01T13:11:28;5.37;;;2.43;;
4317;SDS011;2172;53.576;9.934;2023-02-01T13:13:59;6.37;;;3.00;;
4317;SDS011;2172;53.576;9.934;2023-02-01T13:16:30;2.47;;;1.73;;
4317;SDS011;2172;53.576;9.934;2023-02-01T13:19:00;2.60;;;1.40;;
4317;SDS011;2172;53.576;9.934;2023-02-01T13:21:36;4.20;;;1.90;;
4317;SDS011;2172;53.576;9.934;2023-02-01T13:24:08;6.00;;;2.80;;
4317;SDS011;2172;53.576;9.934;2023-02-01T13:26:52;5.53;;;2.13;;
4317;SDS011;2172;53.576;9.934;2023-02-01T13:29:21;6.57;;;3.90;;
4317;SDS011;2172;53.576;9.934;2023-02-01T13:31:53;4.90;;;2.00;;
4317;SDS011;2172;53.576;9.934;2023-02-01T13:43:13;3.83;;;1.37;;
4317;SDS011;2172;53.576;9.934;2023-02-01T13:45:43;4.80;;;1.80;;
4317;SDS011;2172;53.576;9.934;2023-02-01T13:48:17;2.80;;;1.30;;
4317;SDS011;2172;53.576;9.934;2023-02-01T13:50:50;2.30;;;1.60;;
4317;SDS011;2172;53.576;9.934;2023-02-01T13:53:23;4.70;;;1.90;;
4317;SDS011;2172;53.576;9.934;2023-02-01T13:55:57;8.57;;;2.40;;
4317;SDS011;2172;53.576;9.934;2023-02-01T13:58:30;4.03;;;1.57;;
4317;SDS011;2172;53.576;9.934;2023-02-01T14:04:00;9.17;;;1.90;;
4317;SDS011;2172;53.576;9.934;2023-02-01T14:06:37;10.43;;;2.10;;
4317;SDS011;2172;53.576;9.934;2023-02-01T14:09:19;4.90;;;1.73;;
4317;SDS011;2172;53.576;9.934;2023-02-01T14:15:16;5.60;;;2.00;;
4317;SDS011;2172;53.576;9.934;2023-02-01T14:17:47;5.47;;;3.13;;
4317;SDS011;2172;53.576;9.934;2023-02-01T14:23:25;9.63;;;3.50;;
4317;SDS011;2172;53.576;9.934;2023-02-01T14:26:07;12.00;;;2.43;;
4317;SDS011;2172;53.576;9.934;2023-02-01T14:28:46;7.47;;;2.70;;
4317;SDS011;2172;53.576;9.934;2023-02-01T14:31:25;11.00;;;3.17;;
4317;SDS011;2172;53.576;9.934;2023-02-01T14:33:58;9.43;;;2.27;;
4317;SDS011;2172;53.576;9.934;2023-02-01T14:36:38;12.63;;;2.63;;
4317;SDS011;2172;53.576;9.934;2023-02-01T14:39:17;11.47;;;2.73;;
4317;SDS011;2172;53.576;9.934;2023-02-01T14:41:48;5.33;;;1.97;;
4317;SDS011;2172;53.576;9.934;2023-02-01T14:44:25;6.17;;;2.13;;
4317;SDS011;2172;53.576;9.934;2023-02-01T14:49:57;11.13;;;2.87;;
4317;SDS011;2172;53.576;9.934;2023-02-01T14:52:41;9.20;;;2.60;;
4317;SDS011;2172;53.576;9.934;2023-02-01T14:55:13;11.20;;;3.33;;
4317;SDS011;2172;53.576;9.934;2023-02-01T14:57:46;10.50;;;2.30;;
4317;SDS011;2172;53.576;9.934;2023-02-01T15:00:20;11.40;;;3.20;;
4317;SDS011;2172;53.576;9.934;2023-02-01T15:02:50;18.10;;;3.43;;
4317;SDS011;2172;53.576;9.934;2023-02-01T15:05:25;13.10;;;4.27;;
4317;SDS011;2172;53.576;9.934;2023-02-01T15:07:57;19.90;;;4.47;;
4317;SDS011;2172;53.576;9.934;2023-02-01T15:10:30;12.67;;;4.17;;
4317;SDS011;2172;53.576;9.934;2023-02-01T15:13:00;9.60;;;2.80;;
4317;SDS011;2172;53.576;9.934;2023-02-01T15:15:27;12.93;;;3.03;;
4317;SDS011;2172;53.576;9.934;2023-02-01T15:17:59;9.93;;;3.37;;
4317;SDS011;2172;53.576;9.934;2023-02-01T15:20:27;16.13;;;3.00;;
4317;SDS011;2172;53.576;9.934;2023-02-01T15:22:56;14.37;;;4.80;;
4317;SDS011;2172;53.576;9.934;2023-02-01T15:25:26;14.13;;;5.27;;
4317;SDS011;2172;53.576;9.934;2023-02-01T15:27:54;10.10;;;2.80;;
4317;SDS011;2172;53.576;9.934;2023-02-01T15:30:24;19.60;;;3.60;;
4317;SDS011;2172;53.576;9.934;2023-02-01T15:33:03;12.97;;;3.90;;
4317;SDS011;2172;53.576;9.934;2023-02-01T15:35:37;11.10;;;3.50;;
4317;SDS011;2172;53.576;9.934;2023-02-01T15:41:00;14.10;;;3.20;;
4317;SDS011;2172;53.576;9.934;2023-02-01T15:43:31;14.60;;;2.90;;
4317;SDS011;2172;53.576;9.934;2023-02-01T15:46:02;11.40;;;3.20;;
4317;SDS011;2172;53.576;9.934;2023-02-01T15:48:34;11.37;;;3.30;;
4317;SDS011;2172;53.576;9.934;2023-02-01T15:51:04;9.97;;;2.83;;
4317;SDS011;2172;53.576;9.934;2023-02-01T15:53:32;13.97;;;4.57;;
4317;SDS011;2172;53.576;9.934;2023-02-01T15:56:00;10.67;;;2.77;;
4317;SDS011;2172;53.576;9.934;2023-02-01T15:58:30;12.33;;;3.80;;
4317;SDS011;2172;53.576;9.934;2023-02-01T16:00:59;12.20;;;3.27;;
4317;SDS011;2172;53.576;9.934;2023-02-01T16:03:35;17.93;;;3.50;;
4317;SDS011;2172;53.576;9.934;2023-02-01T16:06:07;23.33;;;5.27;;
4317;SDS011;2172;53.576;9.934;2023-02-01T16:08:35;20.13;;;4.00;;
4317;SDS011;2172;53.576;9.934;2023-02-01T16:11:14;18.13;;;4.00;;